sensor_id;sensor_type;location;lat;lon;timestamp;temperature;humidity
11214;DHT22;5664;48.606;13.456;2023-04-22T00:01:19;23.10;52.00
11214;DHT22;5664;48.606;13.456;2023-04-22T00:03:45;23.10;51.90
11214;DHT22;5664;48.606;13.456;2023-04-22T00:06:11;23.10;51.90
11214;DHT22;5664;48.606;13.456;2023-04-22T00:08:36;23.10;52.00
11214;DHT22;5664;48.606;13.456;2023-04-22T00:11:02;23.10;52.00
11214;DHT22;5664;48.606;13.456;2023-04-22T00:13:27;23.10;52.00
11214;DHT22;5664;48.606;13.456;2023-04-22T00:15:53;23.10;52.00
11214;DHT22;5664;48.606;13.456;2023-04-22T00:18:18;23.10;52.00
11214;DHT22;5664;48.606;13.456;2023-04-22T00:20:44;23.10;52.00
11214;DHT22;5664;48.606;13.456;2023-04-22T00:23:10;23.10;52.00
11214;DHT22;5664;48.606;13.456;2023-04-22T00:25:36;23.10;52.00
11214;DHT22;5664;48.606;13.456;2023-04-22T00:28:02;23.10;52.00
11214;DHT22;5664;48.606;13.456;2023-04-22T00:30:28;23.10;52.00
11214;DHT22;5664;48.606;13.456;2023-04-22T00:32:53;23.10;52.00
11214;DHT22;5664;48.606;13.456;2023-04-22T00:35:19;23.10;52.00
11214;DHT22;5664;48.606;13.456;2023-04-22T00:37:44;23.00;52.00
11214;DHT22;5664;48.606;13.456;2023-04-22T00:40:10;23.10;52.00
11214;DHT22;5664;48.606;13.456;2023-04-22T00:42:36;23.10;52.00
11214;DHT22;5664;48.606;13.456;2023-04-22T00:45:01;23.10;52.00
11214;DHT22;5664;48.606;13.456;2023-04-22T00:47:27;23.10;52.00
11214;DHT22;5664;48.606;13.456;2023-04-22T00:49:52;23.10;52.00
11214;DHT22;5664;48.606;13.456;2023-04-22T00:52:18;23.10;52.00
11214;DHT22;5664;48.606;13.456;2023-04-22T00:54:44;23.10;52.00
11214;DHT22;5664;48.606;13.456;2023-04-22T00:57:09;23.10;51.90
11214;DHT22;5664;48.606;13.456;2023-04-22T00:59:35;23.10;51.90
11214;DHT22;5664;48.606;13.456;2023-04-22T01:02:00;23.10;51.80
11214;DHT22;5664;48.606;13.456;2023-04-22T01:04:27;23.20;51.60
11214;DHT22;5664;48.606;13.456;2023-04-22T01:06:53;23.30;51.50
11214;DHT22;5664;48.606;13.456;2023-04-22T01:09:18;23.20;51.30
11214;DHT22;5664;48.606;13.456;2023-04-22T01:11:45;23.40;51.20
11214;DHT22;5664;48.606;13.456;2023-04-22T01:14:11;23.40;51.10
11214;DHT22;5664;48.606;13.456;2023-04-22T01:16:36;23.50;51.10
11214;DHT22;5664;48.606;13.456;2023-04-22T01:19:03;23.40;51.00
11214;DHT22;5664;48.606;13.456;2023-04-22T01:21:29;23.40;51.00
11214;DHT22;5664;48.606;13.456;2023-04-22T01:23:58;23.50;51.00
11214;DHT22;5664;48.606;13.456;2023-04-22T01:26:24;23.50;50.90
11214;DHT22;5664;48.606;13.456;2023-04-22T01:28:49;23.50;50.90
11214;DHT22;5664;48.606;13.456;2023-04-22T01:31:15;23.50;50.80
11214;DHT22;5664;48.606;13.456;2023-04-22T01:33:40;23.50;50.80
11214;DHT22;5664;48.606;13.456;2023-04-22T01:36:06;23.50;50.80
11214;DHT22;5664;48.606;13.456;2023-04-22T01:38:31;23.50;50.80
11214;DHT22;5664;48.606;13.456;2023-04-22T01:41:01;23.60;50.80
11214;DHT22;5664;48.606;13.456;2023-04-22T01:43:27;23.60;50.70
11214;DHT22;5664;48.606;13.456;2023-04-22T01:45:55;23.60;50.70
11214;DHT22;5664;48.606;13.456;2023-04-22T01:48:20;23.60;50.70
11214;DHT22;5664;48.606;13.456;2023-04-22T01:50:46;23.60;50.70
11214;DHT22;5664;48.606;13.456;2023-04-22T01:53:11;23.60;50.60
11214;DHT22;5664;48.606;13.456;2023-04-22T01:55:37;23.60;50.60
11214;DHT22;5664;48.606;13.456;2023-04-22T01:58:03;23.60;50.60
11214;DHT22;5664;48.606;13.456;2023-04-22T02:00:29;23.60;50.60
11214;DHT22;5664;48.606;13.456;2023-04-22T02:02:54;23.60;50.60
11214;DHT22;5664;48.606;13.456;2023-04-22T02:05:20;23.60;50.60
11214;DHT22;5664;48.606;13.456;2023-04-22T02:07:45;23.60;50.60
11214;DHT22;5664;48.606;13.456;2023-04-22T02:10:11;23.60;50.60
11214;DHT22;5664;48.606;13.456;2023-04-22T02:12:36;23.60;50.60
11214;DHT22;5664;48.606;13.456;2023-04-22T02:15:02;23.60;50.60
11214;DHT22;5664;48.606;13.456;2023-04-22T02:17:27;23.60;50.60
11214;DHT22;5664;48.606;13.456;2023-04-22T02:19:53;23.60;50.60
11214;DHT22;5664;48.606;13.456;2023-04-22T02:22:18;23.60;50.60
11214;DHT22;5664;48.606;13.456;2023-04-22T02:24:44;23.60;50.50
11214;DHT22;5664;48.606;13.456;2023-04-22T02:27:09;23.60;50.50
11214;DHT22;5664;48.606;13.456;2023-04-22T02:29:35;23.60;50.50
11214;DHT22;5664;48.606;13.456;2023-04-22T02:32:00;23.60;50.50
11214;DHT22;5664;48.606;13.456;2023-04-22T02:34:26;23.60;50.50
11214;DHT22;5664;48.606;13.456;2023-04-22T02:36:51;23.60;50.50
11214;DHT22;5664;48.606;13.456;2023-04-22T02:39:17;23.60;50.50
11214;DHT22;5664;48.606;13.456;2023-04-22T02:41:42;23.60;50.50
11214;DHT22;5664;48.606;13.456;2023-04-22T02:44:08;23.60;50.50
11214;DHT22;5664;48.606;13.456;2023-04-22T02:46:33;23.60;50.40
11214;DHT22;5664;48.606;13.456;2023-04-22T02:48:58;23.60;50.40
11214;DHT22;5664;48.606;13.456;2023-04-22T02:51:24;23.70;50.50
11214;DHT22;5664;48.606;13.456;2023-04-22T02:53:51;23.60;50.40
11214;DHT22;5664;48.606;13.456;2023-04-22T02:56:16;23.60;50.40
11214;DHT22;5664;48.606;13.456;2023-04-22T02:58:42;23.60;50.40
11214;DHT22;5664;48.606;13.456;2023-04-22T03:01:07;23.60;50.30
11214;DHT22;5664;48.606;13.456;2023-04-22T03:03:33;23.60;50.30
11214;DHT22;5664;48.606;13.456;2023-04-22T03:05:58;23.70;50.30
11214;DHT22;5664;48.606;13.456;2023-04-22T03:08:24;23.80;50.20
11214;DHT22;5664;48.606;13.456;2023-04-22T03:10:49;23.80;50.00
11214;DHT22;5664;48.606;13.456;2023-04-22T03:13:15;23.80;49.90
11214;DHT22;5664;48.606;13.456;2023-04-22T03:15:40;23.90;49.90
11214;DHT22;5664;48.606;13.456;2023-04-22T03:18:06;23.80;49.90
11214;DHT22;5664;48.606;13.456;2023-04-22T03:20:31;23.90;50.00
11214;DHT22;5664;48.606;13.456;2023-04-22T03:22:57;23.90;49.90
11214;DHT22;5664;48.606;13.456;2023-04-22T03:25:22;23.90;49.80
11214;DHT22;5664;48.606;13.456;2023-04-22T03:27:48;23.80;49.70
11214;DHT22;5664;48.606;13.456;2023-04-22T03:30:13;23.90;49.70
11214;DHT22;5664;48.606;13.456;2023-04-22T03:32:39;24.00;49.60
11214;DHT22;5664;48.606;13.456;2023-04-22T03:35:04;24.00;49.60
11214;DHT22;5664;48.606;13.456;2023-04-22T03:37:30;24.10;49.60
11214;DHT22;5664;48.606;13.456;2023-04-22T03:39:56;24.00;49.50
11214;DHT22;5664;48.606;13.456;2023-04-22T03:42:21;24.10;49.40
11214;DHT22;5664;48.606;13.456;2023-04-22T03:44:47;24.10;49.40
11214;DHT22;5664;48.606;13.456;2023-04-22T03:47:12;24.10;49.30
11214;DHT22;5664;48.606;13.456;2023-04-22T03:49:38;24.10;49.30
11214;DHT22;5664;48.606;13.456;2023-04-22T03:52:03;24.20;49.30
11214;DHT22;5664;48.606;13.456;2023-04-22T03:54:29;24.20;49.20
11214;DHT22;5664;48.606;13.456;2023-04-22T03:56:54;24.20;49.10
11214;DHT22;5664;48.606;13.456;2023-04-22T03:59:19;24.20;49.20
11214;DHT22;5664;48.606;13.456;2023-04-22T04:01:45;24.20;49.10
11214;DHT22;5664;48.606;13.456;2023-04-22T04:04:11;24.30;49.10
11214;DHT22;5664;48.606;13.456;2023-04-22T04:06:36;24.30;49.00
11214;DHT22;5664;48.606;13.456;2023-04-22T04:09:02;24.30;48.90
11214;DHT22;5664;48.606;13.456;2023-04-22T04:11:28;24.30;48.90
11214;DHT22;5664;48.606;13.456;2023-04-22T04:13:53;24.30;48.90
11214;DHT22;5664;48.606;13.456;2023-04-22T04:16:19;24.20;49.00
11214;DHT22;5664;48.606;13.456;2023-04-22T04:18:44;24.30;49.00
11214;DHT22;5664;48.606;13.456;2023-04-22T04:21:10;24.50;48.50
11214;DHT22;5664;48.606;13.456;2023-04-22T04:23:35;24.90;48.00
11214;DHT22;5664;48.606;13.456;2023-04-22T04:26:02;25.30;47.30
11214;DHT22;5664;48.606;13.456;2023-04-22T04:28:29;25.60;46.70
11214;DHT22;5664;48.606;13.456;2023-04-22T04:30:58;25.90;46.10
11214;DHT22;5664;48.606;13.456;2023-04-22T04:33:24;26.20;45.70
11214;DHT22;5664;48.606;13.456;2023-04-22T04:35:49;26.30;45.30
11214;DHT22;5664;48.606;13.456;2023-04-22T04:38:15;26.50;45.00
11214;DHT22;5664;48.606;13.456;2023-04-22T04:40:41;26.70;44.80
11214;DHT22;5664;48.606;13.456;2023-04-22T04:43:09;26.80;44.50
11214;DHT22;5664;48.606;13.456;2023-04-22T04:45:35;26.90;44.30
11214;DHT22;5664;48.606;13.456;2023-04-22T04:48:01;27.00;44.10
11214;DHT22;5664;48.606;13.456;2023-04-22T04:50:27;27.00;44.00
11214;DHT22;5664;48.606;13.456;2023-04-22T04:52:52;27.10;44.00
11214;DHT22;5664;48.606;13.456;2023-04-22T04:55:18;27.10;44.00
11214;DHT22;5664;48.606;13.456;2023-04-22T04:57:43;27.00;43.90
11214;DHT22;5664;48.606;13.456;2023-04-22T05:00:09;27.00;44.00
11214;DHT22;5664;48.606;13.456;2023-04-22T05:02:35;26.90;44.20
11214;DHT22;5664;48.606;13.456;2023-04-22T05:05:00;26.80;44.30
11214;DHT22;5664;48.606;13.456;2023-04-22T05:07:26;26.70;44.40
11214;DHT22;5664;48.606;13.456;2023-04-22T05:09:51;26.60;44.70
11214;DHT22;5664;48.606;13.456;2023-04-22T05:12:17;26.50;44.70
11214;DHT22;5664;48.606;13.456;2023-04-22T05:14:42;26.50;44.90
11214;DHT22;5664;48.606;13.456;2023-04-22T05:17:08;26.40;45.10
11214;DHT22;5664;48.606;13.456;2023-04-22T05:19:34;26.30;45.20
11214;DHT22;5664;48.606;13.456;2023-04-22T05:22:00;26.20;45.30
11214;DHT22;5664;48.606;13.456;2023-04-22T05:24:25;26.20;45.50
11214;DHT22;5664;48.606;13.456;2023-04-22T05:26:51;26.10;45.60
11214;DHT22;5664;48.606;13.456;2023-04-22T05:29:16;26.00;45.70
11214;DHT22;5664;48.606;13.456;2023-04-22T05:31:41;25.90;45.80
11214;DHT22;5664;48.606;13.456;2023-04-22T05:34:07;25.80;45.90
11214;DHT22;5664;48.606;13.456;2023-04-22T05:36:32;25.80;46.10
11214;DHT22;5664;48.606;13.456;2023-04-22T05:38:58;25.70;46.20
11214;DHT22;5664;48.606;13.456;2023-04-22T05:41:23;25.60;46.30
11214;DHT22;5664;48.606;13.456;2023-04-22T05:43:49;25.60;46.50
11214;DHT22;5664;48.606;13.456;2023-04-22T05:46:14;25.50;46.60
11214;DHT22;5664;48.606;13.456;2023-04-22T05:48:40;25.40;46.90
11214;DHT22;5664;48.606;13.456;2023-04-22T05:51:05;25.40;46.90
11214;DHT22;5664;48.606;13.456;2023-04-22T05:53:30;25.30;47.10
11214;DHT22;5664;48.606;13.456;2023-04-22T05:55:56;25.20;47.20
11214;DHT22;5664;48.606;13.456;2023-04-22T05:58:21;25.20;47.30
11214;DHT22;5664;48.606;13.456;2023-04-22T06:00:47;25.10;47.50
11214;DHT22;5664;48.606;13.456;2023-04-22T06:03:12;25.00;47.60
11214;DHT22;5664;48.606;13.456;2023-04-22T06:05:38;25.00;47.70
11214;DHT22;5664;48.606;13.456;2023-04-22T06:08:03;24.90;47.80
11214;DHT22;5664;48.606;13.456;2023-04-22T06:10:29;24.90;48.00
11214;DHT22;5664;48.606;13.456;2023-04-22T06:12:54;24.80;48.10
11214;DHT22;5664;48.606;13.456;2023-04-22T06:15:20;24.80;48.30
11214;DHT22;5664;48.606;13.456;2023-04-22T06:17:47;24.80;48.40
11214;DHT22;5664;48.606;13.456;2023-04-22T06:20:12;24.70;48.50
11214;DHT22;5664;48.606;13.456;2023-04-22T06:22:38;24.70;49.20
11214;DHT22;5664;48.606;13.456;2023-04-22T06:25:03;24.70;48.70
11214;DHT22;5664;48.606;13.456;2023-04-22T06:27:29;24.60;48.80
11214;DHT22;5664;48.606;13.456;2023-04-22T06:29:54;24.60;48.90
11214;DHT22;5664;48.606;13.456;2023-04-22T06:32:20;24.50;49.10
11214;DHT22;5664;48.606;13.456;2023-04-22T06:34:45;24.50;49.00
11214;DHT22;5664;48.606;13.456;2023-04-22T06:37:10;24.50;49.20
11214;DHT22;5664;48.606;13.456;2023-04-22T06:39:36;24.40;49.30
11214;DHT22;5664;48.606;13.456;2023-04-22T06:42:01;24.40;49.40
11214;DHT22;5664;48.606;13.456;2023-04-22T06:44:27;24.40;49.50
11214;DHT22;5664;48.606;13.456;2023-04-22T06:46:53;24.40;49.60
11214;DHT22;5664;48.606;13.456;2023-04-22T06:49:18;24.30;49.70
11214;DHT22;5664;48.606;13.456;2023-04-22T06:51:44;24.20;49.70
11214;DHT22;5664;48.606;13.456;2023-04-22T06:54:09;24.20;49.70
11214;DHT22;5664;48.606;13.456;2023-04-22T06:56:35;24.20;49.90
11214;DHT22;5664;48.606;13.456;2023-04-22T06:59:00;24.10;50.00
11214;DHT22;5664;48.606;13.456;2023-04-22T07:01:26;24.10;50.10
11214;DHT22;5664;48.606;13.456;2023-04-22T07:03:51;24.00;50.10
11214;DHT22;5664;48.606;13.456;2023-04-22T07:06:17;24.00;50.30
11214;DHT22;5664;48.606;13.456;2023-04-22T07:08:42;24.00;50.40
11214;DHT22;5664;48.606;13.456;2023-04-22T07:11:08;23.90;50.50
11214;DHT22;5664;48.606;13.456;2023-04-22T07:13:34;23.90;50.60
11214;DHT22;5664;48.606;13.456;2023-04-22T07:15:59;23.80;50.60
11214;DHT22;5664;48.606;13.456;2023-04-22T07:18:25;23.80;50.80
11214;DHT22;5664;48.606;13.456;2023-04-22T07:20:51;23.70;50.80
11214;DHT22;5664;48.606;13.456;2023-04-22T07:23:16;23.70;50.90
11214;DHT22;5664;48.606;13.456;2023-04-22T07:25:42;23.60;51.00
11214;DHT22;5664;48.606;13.456;2023-04-22T07:28:07;23.60;51.10
11214;DHT22;5664;48.606;13.456;2023-04-22T07:30:33;23.60;51.20
11214;DHT22;5664;48.606;13.456;2023-04-22T07:32:58;23.60;51.30
11214;DHT22;5664;48.606;13.456;2023-04-22T07:35:24;23.60;51.40
11214;DHT22;5664;48.606;13.456;2023-04-22T07:37:49;23.50;51.50
11214;DHT22;5664;48.606;13.456;2023-04-22T07:40:15;23.50;51.50
11214;DHT22;5664;48.606;13.456;2023-04-22T07:42:40;23.40;51.60
11214;DHT22;5664;48.606;13.456;2023-04-22T07:45:06;23.40;51.70
11214;DHT22;5664;48.606;13.456;2023-04-22T07:47:31;23.40;51.80
11214;DHT22;5664;48.606;13.456;2023-04-22T07:49:57;23.40;51.80
11214;DHT22;5664;48.606;13.456;2023-04-22T07:52:22;23.40;51.90
11214;DHT22;5664;48.606;13.456;2023-04-22T07:54:48;23.30;51.90
11214;DHT22;5664;48.606;13.456;2023-04-22T07:57:14;23.30;51.90
11214;DHT22;5664;48.606;13.456;2023-04-22T07:59:39;23.30;52.00
11214;DHT22;5664;48.606;13.456;2023-04-22T08:02:05;23.30;52.10
11214;DHT22;5664;48.606;13.456;2023-04-22T08:04:30;23.30;52.10
11214;DHT22;5664;48.606;13.456;2023-04-22T08:06:56;23.20;52.10
11214;DHT22;5664;48.606;13.456;2023-04-22T08:09:21;23.20;52.10
11214;DHT22;5664;48.606;13.456;2023-04-22T08:11:47;23.20;52.30
11214;DHT22;5664;48.606;13.456;2023-04-22T08:14:12;23.20;52.30
11214;DHT22;5664;48.606;13.456;2023-04-22T08:16:38;23.10;52.30
11214;DHT22;5664;48.606;13.456;2023-04-22T08:19:03;23.20;52.40
11214;DHT22;5664;48.606;13.456;2023-04-22T08:21:29;23.20;52.40
11214;DHT22;5664;48.606;13.456;2023-04-22T08:23:55;23.10;52.40
11214;DHT22;5664;48.606;13.456;2023-04-22T08:26:21;23.10;52.50
11214;DHT22;5664;48.606;13.456;2023-04-22T08:28:46;23.10;52.50
11214;DHT22;5664;48.606;13.456;2023-04-22T08:31:12;23.10;52.60
11214;DHT22;5664;48.606;13.456;2023-04-22T08:33:40;23.10;52.60
11214;DHT22;5664;48.606;13.456;2023-04-22T08:36:06;23.10;52.60
11214;DHT22;5664;48.606;13.456;2023-04-22T08:38:32;23.10;52.60
11214;DHT22;5664;48.606;13.456;2023-04-22T08:40:58;23.10;52.70
11214;DHT22;5664;48.606;13.456;2023-04-22T08:43:24;23.10;52.80
11214;DHT22;5664;48.606;13.456;2023-04-22T08:45:51;23.00;52.80
11214;DHT22;5664;48.606;13.456;2023-04-22T08:48:17;23.00;52.80
11214;DHT22;5664;48.606;13.456;2023-04-22T08:50:43;23.00;52.90
11214;DHT22;5664;48.606;13.456;2023-04-22T08:53:08;23.00;53.00
11214;DHT22;5664;48.606;13.456;2023-04-22T08:55:34;22.90;52.90
11214;DHT22;5664;48.606;13.456;2023-04-22T08:58:00;22.90;53.00
11214;DHT22;5664;48.606;13.456;2023-04-22T09:00:29;22.90;53.10
11214;DHT22;5664;48.606;13.456;2023-04-22T09:02:56;22.80;53.10
11214;DHT22;5664;48.606;13.456;2023-04-22T09:05:24;22.80;53.20
11214;DHT22;5664;48.606;13.456;2023-04-22T09:07:50;22.80;53.20
11214;DHT22;5664;48.606;13.456;2023-04-22T09:10:16;22.80;53.30
11214;DHT22;5664;48.606;13.456;2023-04-22T09:12:42;22.80;53.30
11214;DHT22;5664;48.606;13.456;2023-04-22T09:15:08;22.80;53.40
11214;DHT22;5664;48.606;13.456;2023-04-22T09:17:34;22.80;53.40
11214;DHT22;5664;48.606;13.456;2023-04-22T09:20:03;22.70;53.40
11214;DHT22;5664;48.606;13.456;2023-04-22T09:22:35;22.70;53.50
11214;DHT22;5664;48.606;13.456;2023-04-22T09:25:02;22.70;53.50
11214;DHT22;5664;48.606;13.456;2023-04-22T09:27:28;22.70;53.60
11214;DHT22;5664;48.606;13.456;2023-04-22T09:29:54;22.60;53.70
11214;DHT22;5664;48.606;13.456;2023-04-22T09:32:19;22.50;53.90
11214;DHT22;5664;48.606;13.456;2023-04-22T09:34:49;22.40;54.00
11214;DHT22;5664;48.606;13.456;2023-04-22T09:37:17;22.30;54.50
11214;DHT22;5664;48.606;13.456;2023-04-22T09:39:42;22.30;54.40
11214;DHT22;5664;48.606;13.456;2023-04-22T09:42:08;22.10;54.50
11214;DHT22;5664;48.606;13.456;2023-04-22T09:44:33;22.10;54.80
11214;DHT22;5664;48.606;13.456;2023-04-22T09:46:59;22.00;55.00
11214;DHT22;5664;48.606;13.456;2023-04-22T09:49:26;21.90;55.30
11214;DHT22;5664;48.606;13.456;2023-04-22T09:51:57;21.80;55.50
11214;DHT22;5664;48.606;13.456;2023-04-22T09:54:23;21.70;55.70
11214;DHT22;5664;48.606;13.456;2023-04-22T09:56:49;21.60;55.90
11214;DHT22;5664;48.606;13.456;2023-04-22T09:59:18;21.50;56.10
11214;DHT22;5664;48.606;13.456;2023-04-22T10:01:45;21.40;56.20
11214;DHT22;5664;48.606;13.456;2023-04-22T10:04:10;21.30;56.40
11214;DHT22;5664;48.606;13.456;2023-04-22T10:06:39;21.20;56.60
11214;DHT22;5664;48.606;13.456;2023-04-22T10:09:04;21.20;56.80
11214;DHT22;5664;48.606;13.456;2023-04-22T10:11:31;21.10;57.00
11214;DHT22;5664;48.606;13.456;2023-04-22T10:13:57;21.00;57.10
11214;DHT22;5664;48.606;13.456;2023-04-22T10:16:23;21.00;57.30
11214;DHT22;5664;48.606;13.456;2023-04-22T10:18:48;20.90;57.40
11214;DHT22;5664;48.606;13.456;2023-04-22T10:21:16;20.90;57.60
11214;DHT22;5664;48.606;13.456;2023-04-22T10:23:46;20.80;57.70
11214;DHT22;5664;48.606;13.456;2023-04-22T10:26:12;20.70;57.80
11214;DHT22;5664;48.606;13.456;2023-04-22T10:28:41;20.70;58.00
11214;DHT22;5664;48.606;13.456;2023-04-22T10:31:18;20.60;58.10
11214;DHT22;5664;48.606;13.456;2023-04-22T10:33:44;20.60;58.20
11214;DHT22;5664;48.606;13.456;2023-04-22T10:38:36;20.50;58.50
11214;DHT22;5664;48.606;13.456;2023-04-22T10:41:02;20.40;58.60
11214;DHT22;5664;48.606;13.456;2023-04-22T10:43:47;20.40;58.70
11214;DHT22;5664;48.606;13.456;2023-04-22T10:49:00;20.30;58.90
11214;DHT22;5664;48.606;13.456;2023-04-22T10:51:37;20.30;59.00
11214;DHT22;5664;48.606;13.456;2023-04-22T10:54:03;20.20;59.00
11214;DHT22;5664;48.606;13.456;2023-04-22T10:56:28;20.20;59.10
11214;DHT22;5664;48.606;13.456;2023-04-22T10:58:56;20.20;59.20
11214;DHT22;5664;48.606;13.456;2023-04-22T11:01:22;20.10;59.30
11214;DHT22;5664;48.606;13.456;2023-04-22T11:03:50;20.10;59.40
11214;DHT22;5664;48.606;13.456;2023-04-22T11:06:16;20.10;59.50
11214;DHT22;5664;48.606;13.456;2023-04-22T11:08:42;20.10;59.60
11214;DHT22;5664;48.606;13.456;2023-04-22T11:11:09;20.00;59.50
11214;DHT22;5664;48.606;13.456;2023-04-22T11:13:35;20.00;60.40
11214;DHT22;5664;48.606;13.456;2023-04-22T11:16:00;20.00;59.70
11214;DHT22;5664;48.606;13.456;2023-04-22T11:18:26;20.00;59.80
11214;DHT22;5664;48.606;13.456;2023-04-22T11:20:52;19.90;59.90
11214;DHT22;5664;48.606;13.456;2023-04-22T11:23:22;19.90;59.90
11214;DHT22;5664;48.606;13.456;2023-04-22T11:25:52;19.90;60.00
11214;DHT22;5664;48.606;13.456;2023-04-22T11:28:19;19.90;60.10
11214;DHT22;5664;48.606;13.456;2023-04-22T11:30:44;19.80;60.20
11214;DHT22;5664;48.606;13.456;2023-04-22T11:33:13;19.80;60.20
11214;DHT22;5664;48.606;13.456;2023-04-22T11:35:38;19.80;60.30
11214;DHT22;5664;48.606;13.456;2023-04-22T11:38:04;19.80;60.40
11214;DHT22;5664;48.606;13.456;2023-04-22T11:42:56;19.80;60.50
11214;DHT22;5664;48.606;13.456;2023-04-22T11:45:22;19.80;60.60
11214;DHT22;5664;48.606;13.456;2023-04-22T11:47:49;19.70;60.60
11214;DHT22;5664;48.606;13.456;2023-04-22T11:50:16;19.70;60.70
11214;DHT22;5664;48.606;13.456;2023-04-22T11:55:19;19.70;60.80
11214;DHT22;5664;48.606;13.456;2023-04-22T11:57:50;19.70;60.90
11214;DHT22;5664;48.606;13.456;2023-04-22T12:00:16;19.70;61.00
11214;DHT22;5664;48.606;13.456;2023-04-22T12:02:42;19.60;60.90
11214;DHT22;5664;48.606;13.456;2023-04-22T12:05:10;19.60;61.00
11214;DHT22;5664;48.606;13.456;2023-04-22T12:07:38;19.60;61.00
11214;DHT22;5664;48.606;13.456;2023-04-22T12:10:04;19.60;61.10
11214;DHT22;5664;48.606;13.456;2023-04-22T12:12:32;19.60;61.10
11214;DHT22;5664;48.606;13.456;2023-04-22T12:15:07;19.60;61.20
11214;DHT22;5664;48.606;13.456;2023-04-22T12:17:32;19.60;61.20
11214;DHT22;5664;48.606;13.456;2023-04-22T12:19:58;19.60;61.20
11214;DHT22;5664;48.606;13.456;2023-04-22T12:22:32;19.50;61.20
11214;DHT22;5664;48.606;13.456;2023-04-22T12:24:58;19.50;61.30
11214;DHT22;5664;48.606;13.456;2023-04-22T12:27:24;19.50;61.30
11214;DHT22;5664;48.606;13.456;2023-04-22T12:29:50;19.50;61.40
11214;DHT22;5664;48.606;13.456;2023-04-22T12:32:18;19.50;61.40
11214;DHT22;5664;48.606;13.456;2023-04-22T12:34:43;19.50;61.40
11214;DHT22;5664;48.606;13.456;2023-04-22T12:37:09;19.50;61.50
11214;DHT22;5664;48.606;13.456;2023-04-22T12:39:35;19.50;61.50
11214;DHT22;5664;48.606;13.456;2023-04-22T12:42:02;19.50;61.50
11214;DHT22;5664;48.606;13.456;2023-04-22T12:44:30;19.50;61.60
11214;DHT22;5664;48.606;13.456;2023-04-22T12:46:55;19.50;61.60
11214;DHT22;5664;48.606;13.456;2023-04-22T12:49:21;19.40;61.60
11214;DHT22;5664;48.606;13.456;2023-04-22T12:51:46;19.40;61.60
11214;DHT22;5664;48.606;13.456;2023-04-22T12:54:12;19.40;61.70
11214;DHT22;5664;48.606;13.456;2023-04-22T12:56:37;19.40;61.70
11214;DHT22;5664;48.606;13.456;2023-04-22T12:59:03;19.40;61.80
11214;DHT22;5664;48.606;13.456;2023-04-22T13:01:28;19.40;61.80
11214;DHT22;5664;48.606;13.456;2023-04-22T13:03:54;19.40;61.80
11214;DHT22;5664;48.606;13.456;2023-04-22T13:06:20;19.40;61.90
11214;DHT22;5664;48.606;13.456;2023-04-22T13:08:45;19.40;61.90
11214;DHT22;5664;48.606;13.456;2023-04-22T13:11:11;19.40;61.90
11214;DHT22;5664;48.606;13.456;2023-04-22T13:13:36;19.40;61.90
11214;DHT22;5664;48.606;13.456;2023-04-22T13:16:01;19.40;61.90
11214;DHT22;5664;48.606;13.456;2023-04-22T13:18:27;19.40;61.90
11214;DHT22;5664;48.606;13.456;2023-04-22T13:20:53;19.40;61.90
11214;DHT22;5664;48.606;13.456;2023-04-22T13:23:21;19.40;62.00
11214;DHT22;5664;48.606;13.456;2023-04-22T13:25:48;19.40;62.00
11214;DHT22;5664;48.606;13.456;2023-04-22T13:28:13;19.30;61.90
11214;DHT22;5664;48.606;13.456;2023-04-22T13:30:39;19.30;62.00
11214;DHT22;5664;48.606;13.456;2023-04-22T13:33:04;19.30;62.00
11214;DHT22;5664;48.606;13.456;2023-04-22T13:35:30;19.30;62.00
11214;DHT22;5664;48.606;13.456;2023-04-22T13:37:55;19.30;62.10
11214;DHT22;5664;48.606;13.456;2023-04-22T13:40:21;19.30;62.10
11214;DHT22;5664;48.606;13.456;2023-04-22T13:42:46;19.30;62.10
11214;DHT22;5664;48.606;13.456;2023-04-22T13:45:12;19.30;62.10
11214;DHT22;5664;48.606;13.456;2023-04-22T13:47:37;19.30;62.20
11214;DHT22;5664;48.606;13.456;2023-04-22T13:50:03;19.30;62.20
11214;DHT22;5664;48.606;13.456;2023-04-22T13:52:30;19.30;62.20
11214;DHT22;5664;48.606;13.456;2023-04-22T13:54:55;19.30;62.20
11214;DHT22;5664;48.606;13.456;2023-04-22T13:57:21;19.30;62.20
11214;DHT22;5664;48.606;13.456;2023-04-22T13:59:50;19.30;62.30
11214;DHT22;5664;48.606;13.456;2023-04-22T14:02:15;19.30;62.30
11214;DHT22;5664;48.606;13.456;2023-04-22T14:04:41;19.30;62.30
11214;DHT22;5664;48.606;13.456;2023-04-22T14:07:07;19.30;62.40
11214;DHT22;5664;48.606;13.456;2023-04-22T14:09:32;19.30;62.30
11214;DHT22;5664;48.606;13.456;2023-04-22T14:11:59;19.30;62.40
11214;DHT22;5664;48.606;13.456;2023-04-22T14:14:24;19.30;62.40
11214;DHT22;5664;48.606;13.456;2023-04-22T14:16:50;19.20;62.40
11214;DHT22;5664;48.606;13.456;2023-04-22T14:19:16;19.20;62.40
11214;DHT22;5664;48.606;13.456;2023-04-22T14:21:41;19.20;62.40
11214;DHT22;5664;48.606;13.456;2023-04-22T14:24:06;19.20;62.40
11214;DHT22;5664;48.606;13.456;2023-04-22T14:26:32;19.20;62.40
11214;DHT22;5664;48.606;13.456;2023-04-22T14:28:58;19.20;62.40
11214;DHT22;5664;48.606;13.456;2023-04-22T14:31:23;19.20;62.40
11214;DHT22;5664;48.606;13.456;2023-04-22T14:33:49;19.20;62.40
11214;DHT22;5664;48.606;13.456;2023-04-22T14:36:16;19.20;62.50
11214;DHT22;5664;48.606;13.456;2023-04-22T14:38:41;19.20;62.50
11214;DHT22;5664;48.606;13.456;2023-04-22T14:41:07;19.20;62.50
11214;DHT22;5664;48.606;13.456;2023-04-22T14:43:33;19.20;62.50
11214;DHT22;5664;48.606;13.456;2023-04-22T14:45:58;19.20;62.60
11214;DHT22;5664;48.606;13.456;2023-04-22T14:48:24;19.20;62.50
11214;DHT22;5664;48.606;13.456;2023-04-22T14:50:54;19.20;62.50
11214;DHT22;5664;48.606;13.456;2023-04-22T14:53:19;19.20;62.60
11214;DHT22;5664;48.606;13.456;2023-04-22T14:55:45;19.20;62.70
11214;DHT22;5664;48.606;13.456;2023-04-22T14:58:10;19.20;62.60
11214;DHT22;5664;48.606;13.456;2023-04-22T15:00:36;19.10;62.60
11214;DHT22;5664;48.606;13.456;2023-04-22T15:03:01;19.20;62.60
11214;DHT22;5664;48.606;13.456;2023-04-22T15:05:27;19.20;62.60
11214;DHT22;5664;48.606;13.456;2023-04-22T15:07:52;19.20;62.70
11214;DHT22;5664;48.606;13.456;2023-04-22T15:10:18;19.10;62.60
11214;DHT22;5664;48.606;13.456;2023-04-22T15:12:43;19.10;62.60
11214;DHT22;5664;48.606;13.456;2023-04-22T15:15:09;19.10;62.70
11214;DHT22;5664;48.606;13.456;2023-04-22T15:17:37;19.10;62.60
11214;DHT22;5664;48.606;13.456;2023-04-22T15:20:03;19.10;62.60
11214;DHT22;5664;48.606;13.456;2023-04-22T15:22:29;19.10;62.70
11214;DHT22;5664;48.606;13.456;2023-04-22T15:24:55;19.10;62.70
11214;DHT22;5664;48.606;13.456;2023-04-22T15:27:20;19.10;62.80
11214;DHT22;5664;48.606;13.456;2023-04-22T15:29:46;19.10;62.70
11214;DHT22;5664;48.606;13.456;2023-04-22T15:32:12;19.10;62.70